createdAt,value
2019-02-06T00:00:47.848Z,3.53
2019-02-06T00:03:19.747Z,4.57
2019-02-06T00:05:47.185Z,3.63
2019-02-06T00:08:14.675Z,6.83
2019-02-06T00:10:42.228Z,3.43
2019-02-06T00:13:09.570Z,2.57
2019-02-06T00:15:37.533Z,1.07
2019-02-06T00:18:05.330Z,2.23
2019-02-06T00:20:33.112Z,2.50
2019-02-06T00:23:00.884Z,3.40
2019-02-06T00:25:28.142Z,3.77
2019-02-06T00:27:55.772Z,2.10
2019-02-06T00:30:24.505Z,2.23
2019-02-06T00:32:51.915Z,2.60
2019-02-06T00:35:25.711Z,3.00
2019-02-06T00:37:48.539Z,2.23
2019-02-06T00:40:15.918Z,4.20
2019-02-06T00:42:43.278Z,4.67
2019-02-06T00:45:10.866Z,2.77
2019-02-06T00:47:38.187Z,3.90
2019-02-06T00:50:06.953Z,1.93
2019-02-06T00:52:37.530Z,1.20
2019-02-06T00:55:06.041Z,2.87
2019-02-06T00:57:34.468Z,2.17
2019-02-06T01:00:02.387Z,4.90
2019-02-06T01:02:30.231Z,3.17
2019-02-06T01:05:22.908Z,2.03
2019-02-06T01:07:50.390Z,3.23
2019-02-06T01:10:19.106Z,4.13
2019-02-06T01:12:46.572Z,2.03
2019-02-06T01:15:14.145Z,4.33
2019-02-06T01:17:41.690Z,3.00
2019-02-06T01:20:11.025Z,3.93
2019-02-06T01:22:38.509Z,2.67
2019-02-06T01:25:08.075Z,1.73
2019-02-06T01:27:35.475Z,4.63
2019-02-06T01:30:06.839Z,4.87
2019-02-06T01:32:51.325Z,4.20
2019-02-06T01:35:18.771Z,5.03
2019-02-06T01:37:46.229Z,4.03
2019-02-06T01:40:15.407Z,4.13
2019-02-06T01:42:42.786Z,2.00
2019-02-06T01:45:11.376Z,1.97
2019-02-06T01:47:39.566Z,3.90
2019-02-06T01:50:09.356Z,2.53
2019-02-06T01:52:37.944Z,3.20
2019-02-06T01:55:07.352Z,4.00
2019-02-06T01:57:35.585Z,4.00
2019-02-06T02:00:11.492Z,3.23
2019-02-06T02:02:39.126Z,1.67
2019-02-06T02:05:07.468Z,2.93
2019-02-06T02:07:41.275Z,9.63
2019-02-06T02:10:09.635Z,1.90
2019-02-06T02:12:37.598Z,2.40
2019-02-06T02:15:07.250Z,2.10
2019-02-06T02:17:34.868Z,2.13
2019-02-06T02:20:02.444Z,3.87
2019-02-06T02:22:30.958Z,2.67
2019-02-06T02:24:58.388Z,1.73
2019-02-06T02:27:26.079Z,1.27
2019-02-06T02:29:53.539Z,2.40
2019-02-06T02:32:21.050Z,3.20
2019-02-06T02:34:49.502Z,1.80
2019-02-06T02:37:17.028Z,3.33
2019-02-06T02:39:44.775Z,3.03
2019-02-06T02:42:12.134Z,3.00
2019-02-06T02:44:39.463Z,3.10
2019-02-06T02:47:07.024Z,3.17
2019-02-06T02:49:34.353Z,2.53
2019-02-06T02:52:01.720Z,6.67
2019-02-06T02:54:29.218Z,1.43
2019-02-06T02:56:57.081Z,3.23
2019-02-06T02:59:24.435Z,3.13
2019-02-06T03:01:59.864Z,2.50
2019-02-06T03:04:40.687Z,1.33
2019-02-06T03:07:08.408Z,1.90
2019-02-06T03:09:35.965Z,4.33
2019-02-06T03:12:03.520Z,2.87
2019-02-06T03:14:31.021Z,2.70
2019-02-06T03:16:58.547Z,2.40
2019-02-06T03:19:26.024Z,3.43
2019-02-06T03:21:53.433Z,3.97
2019-02-06T03:24:20.756Z,4.23
2019-02-06T03:26:48.105Z,4.47
2019-02-06T03:29:15.508Z,3.17
2019-02-06T03:31:42.845Z,3.10
2019-02-06T03:34:10.239Z,3.20
2019-02-06T03:36:40.654Z,3.33
2019-02-06T03:39:08.184Z,2.40
2019-02-06T03:41:35.634Z,2.83
2019-02-06T03:44:03.306Z,2.20
2019-02-06T03:46:30.800Z,2.30
2019-02-06T03:48:58.389Z,2.63
2019-02-06T03:51:26.413Z,4.30
2019-02-06T03:53:54.027Z,2.47
2019-02-06T03:56:21.417Z,4.73
2019-02-06T03:58:48.791Z,4.03
2019-02-06T04:01:16.138Z,3.40
2019-02-06T04:03:43.816Z,3.43
2019-02-06T04:06:11.493Z,2.80
2019-02-06T04:08:38.978Z,3.33
2019-02-06T04:11:06.342Z,2.23
2019-02-06T04:13:33.753Z,5.57
2019-02-06T04:16:01.437Z,2.30
2019-02-06T04:18:28.978Z,3.90
2019-02-06T04:20:56.744Z,2.93
2019-02-06T04:23:24.104Z,2.67
2019-02-06T04:25:51.433Z,3.87
2019-02-06T04:28:18.891Z,4.73
2019-02-06T04:30:46.240Z,3.87
2019-02-06T04:33:13.602Z,6.10
2019-02-06T04:35:41.076Z,4.27
2019-02-06T04:38:08.645Z,3.43
2019-02-06T04:40:36.367Z,4.03
2019-02-06T04:43:03.915Z,2.67
2019-02-06T04:45:31.393Z,2.33
2019-02-06T04:47:58.756Z,5.13
2019-02-06T04:50:26.140Z,3.37
2019-02-06T04:52:53.524Z,3.53
2019-02-06T04:55:20.972Z,4.87
2019-02-06T04:57:48.516Z,3.43
2019-02-06T05:00:21.395Z,2.27
2019-02-06T05:02:48.740Z,1.63
2019-02-06T05:05:16.281Z,2.20
2019-02-06T05:07:43.767Z,3.30
2019-02-06T05:10:11.580Z,2.73
2019-02-06T05:12:39.150Z,3.40
2019-02-06T05:15:07.431Z,3.80
2019-02-06T05:17:34.809Z,6.57
2019-02-06T05:20:06.748Z,4.87
2019-02-06T05:22:34.118Z,2.53
2019-02-06T05:25:01.490Z,3.17
2019-02-06T05:27:28.884Z,3.10
2019-02-06T05:29:56.364Z,4.43
2019-02-06T05:32:23.822Z,4.17
2019-02-06T05:34:51.167Z,5.10
2019-02-06T05:37:31.720Z,4.40
2019-02-06T05:39:49.549Z,4.77
2019-02-06T05:42:16.871Z,4.80
2019-02-06T05:44:44.283Z,3.27
2019-02-06T05:47:11.600Z,2.93
2019-02-06T05:49:39.412Z,3.30
2019-02-06T05:52:06.843Z,3.10
2019-02-06T05:54:34.401Z,3.90
2019-02-06T05:57:01.852Z,3.97
2019-02-06T05:59:29.219Z,4.17
2019-02-06T06:01:56.990Z,3.53
2019-02-06T06:04:24.347Z,4.20
2019-02-06T06:06:52.017Z,3.70
2019-02-06T06:09:19.374Z,4.27
2019-02-06T06:11:46.765Z,5.00
2019-02-06T06:14:14.156Z,3.40
2019-02-06T06:16:41.653Z,4.60
2019-02-06T06:19:09.455Z,5.60
2019-02-06T06:21:36.805Z,6.20
2019-02-06T06:24:04.160Z,6.10
2019-02-06T06:26:31.517Z,4.87
2019-02-06T06:28:58.905Z,4.03
2019-02-06T06:31:26.260Z,4.57
2019-02-06T06:33:53.745Z,6.80
2019-02-06T06:36:21.206Z,6.63
2019-02-06T06:38:48.531Z,7.67
2019-02-06T06:41:16.035Z,5.37
2019-02-06T06:43:43.414Z,6.23
2019-02-06T06:46:11.159Z,5.10
2019-02-06T06:48:38.525Z,6.57
2019-02-06T06:51:05.961Z,7.07
2019-02-06T06:53:33.291Z,6.10
2019-02-06T06:56:00.652Z,6.93
2019-02-06T06:58:28.035Z,5.17
2019-02-06T07:00:55.433Z,6.13
2019-02-06T07:03:22.860Z,3.53
2019-02-06T07:05:50.363Z,2.90
2019-02-06T07:08:17.693Z,5.37
2019-02-06T07:10:45.075Z,4.73
2019-02-06T07:13:12.547Z,3.70
2019-02-06T07:15:40.012Z,5.20
2019-02-06T07:18:07.352Z,3.77
2019-02-06T07:20:34.716Z,4.63
2019-02-06T07:23:02.325Z,4.20
2019-02-06T07:25:29.692Z,3.73
2019-02-06T07:27:57.064Z,4.30
2019-02-06T07:30:29.563Z,3.37
2019-02-06T07:32:57.311Z,5.83
2019-02-06T07:35:24.650Z,4.20
2019-02-06T07:37:51.951Z,5.57
2019-02-06T07:40:19.272Z,6.50
2019-02-06T07:42:46.607Z,5.37
2019-02-06T07:45:14.718Z,3.83
2019-02-06T07:47:42.080Z,3.70
2019-02-06T07:50:13.050Z,4.00
2019-02-06T07:52:40.392Z,3.73
2019-02-06T07:55:07.687Z,3.37
2019-02-06T07:57:35.408Z,3.30
2019-02-06T08:00:04.150Z,5.43
2019-02-06T08:02:31.457Z,3.20
2019-02-06T08:04:58.756Z,3.23
2019-02-06T08:07:26.070Z,3.33
2019-02-06T08:09:53.482Z,3.50
2019-02-06T08:12:20.819Z,4.17
2019-02-06T08:14:48.575Z,5.03
2019-02-06T08:17:16.002Z,2.87
2019-02-06T08:19:43.345Z,3.43
2019-02-06T08:22:10.652Z,2.90
2019-02-06T08:24:37.989Z,3.00
2019-02-06T08:27:05.307Z,2.50
2019-02-06T08:29:32.654Z,3.33
2019-02-06T08:31:59.975Z,3.63
2019-02-06T08:34:27.321Z,2.60
2019-02-06T08:36:54.672Z,3.30
2019-02-06T08:39:21.962Z,7.60
2019-02-06T08:41:49.312Z,3.47
2019-02-06T08:44:16.647Z,5.90
2019-02-06T08:46:43.975Z,6.70
2019-02-06T08:49:11.271Z,6.03
2019-02-06T08:51:38.931Z,5.07
2019-02-06T08:54:06.267Z,3.60
2019-02-06T08:56:33.603Z,6.10
2019-02-06T08:59:00.930Z,6.23
2019-02-06T09:01:28.581Z,6.63
2019-02-06T09:03:55.884Z,7.20
2019-02-06T09:06:23.423Z,8.07
2019-02-06T09:08:59.260Z,6.23
2019-02-06T09:11:19.885Z,10.50
2019-02-06T09:13:47.195Z,10.83
2019-02-06T09:16:14.544Z,8.13
2019-02-06T09:18:41.979Z,7.07
2019-02-06T09:21:09.326Z,13.20
2019-02-06T09:23:36.620Z,5.77
2019-02-06T09:26:04.455Z,7.93
2019-02-06T09:28:31.767Z,9.20
2019-02-06T09:30:59.205Z,12.80
2019-02-06T09:33:26.423Z,14.90
2019-02-06T09:35:53.635Z,8.13
2019-02-06T09:38:20.963Z,6.80
2019-02-06T09:40:49.565Z,5.73
2019-02-06T09:43:17.033Z,11.97
2019-02-06T09:45:44.686Z,10.57
2019-02-06T09:48:12.021Z,9.47
2019-02-06T09:50:39.344Z,8.07
2019-02-06T09:53:06.676Z,7.43
2019-02-06T09:55:34.001Z,10.90
2019-02-06T09:58:01.341Z,10.10
2019-02-06T10:00:33.693Z,9.40
2019-02-06T10:03:01.521Z,9.50
2019-02-06T10:05:29.240Z,14.10
2019-02-06T10:07:56.667Z,8.57
2019-02-06T10:10:24.394Z,14.17
2019-02-06T10:12:51.725Z,12.00
2019-02-06T10:15:24.060Z,17.37
2019-02-06T10:17:51.608Z,12.03
2019-02-06T10:20:20.069Z,10.40
2019-02-06T10:22:47.364Z,12.57
2019-02-06T10:25:14.760Z,9.73
2019-02-06T10:27:42.091Z,8.57
2019-02-06T10:30:17.483Z,10.27
2019-02-06T10:32:44.836Z,10.10
2019-02-06T10:35:12.595Z,8.37
2019-02-06T10:37:40.131Z,6.43
2019-02-06T10:40:08.163Z,6.57
2019-02-06T10:42:35.719Z,10.40
2019-02-06T10:45:04.253Z,11.20
2019-02-06T10:47:31.778Z,6.33
2019-02-06T10:49:59.360Z,7.50
2019-02-06T10:52:26.985Z,7.70
2019-02-06T10:54:54.538Z,6.40
2019-02-06T10:57:21.929Z,9.37
2019-02-06T10:59:49.445Z,7.37
2019-02-06T11:02:17.084Z,7.60
2019-02-06T11:04:44.603Z,6.40
2019-02-06T11:07:12.078Z,5.37
2019-02-06T11:09:46.009Z,9.10
2019-02-06T11:12:08.954Z,4.93
2019-02-06T11:14:36.398Z,5.17
2019-02-06T11:17:03.953Z,4.73
2019-02-06T11:19:31.510Z,4.60
2019-02-06T11:21:59.044Z,6.10
2019-02-06T11:24:26.942Z,6.00
2019-02-06T11:26:54.623Z,5.10
2019-02-06T11:29:22.484Z,5.97
2019-02-06T11:31:50.195Z,7.33
2019-02-06T11:34:17.659Z,6.80
2019-02-06T11:36:45.317Z,5.00
2019-02-06T11:39:21.948Z,4.37
2019-02-06T11:41:49.256Z,8.97
2019-02-06T11:44:17.111Z,6.83
2019-02-06T11:46:44.418Z,4.27
2019-02-06T11:49:12.525Z,6.33
2019-02-06T11:51:39.879Z,5.40
2019-02-06T11:54:07.272Z,6.63
2019-02-06T11:56:34.580Z,5.90
2019-02-06T11:59:01.910Z,4.97
2019-02-06T12:01:32.687Z,6.33
2019-02-06T12:04:00.052Z,6.00
2019-02-06T12:06:27.368Z,6.97
2019-02-06T12:08:54.712Z,6.50
2019-02-06T12:11:22.029Z,6.77
2019-02-06T12:13:49.359Z,8.37
2019-02-06T12:16:16.673Z,5.47
2019-02-06T12:18:44.055Z,4.33
2019-02-06T12:21:11.691Z,6.23
2019-02-06T12:23:39.001Z,6.27
2019-02-06T12:26:06.331Z,5.43
2019-02-06T12:28:33.664Z,6.53
2019-02-06T12:31:00.970Z,5.07
2019-02-06T12:33:28.343Z,4.87
2019-02-06T12:35:55.659Z,4.27
2019-02-06T12:38:23.992Z,5.50
2019-02-06T12:40:51.362Z,4.03
2019-02-06T12:43:18.849Z,3.67
2019-02-06T12:45:46.714Z,2.83
2019-02-06T12:48:14.406Z,3.67
2019-02-06T12:50:42.169Z,4.23
2019-02-06T12:53:09.611Z,2.23
2019-02-06T12:55:37.895Z,2.03
2019-02-06T12:58:06.229Z,2.67
2019-02-06T13:00:34.483Z,2.33
2019-02-06T13:03:02.114Z,2.93
2019-02-06T13:05:29.997Z,2.07
2019-02-06T13:07:58.161Z,1.90
2019-02-06T13:10:33.259Z,2.30
2019-02-06T13:12:54.951Z,2.03
2019-02-06T13:15:22.364Z,2.43
2019-02-06T13:17:50.295Z,3.10
2019-02-06T13:20:21.142Z,2.40
2019-02-06T13:22:48.780Z,1.87
2019-02-06T13:25:16.521Z,2.73
2019-02-06T13:27:44.069Z,3.07
2019-02-06T13:30:28.773Z,2.47
2019-02-06T13:32:56.275Z,2.10
2019-02-06T13:35:23.763Z,1.57
2019-02-06T13:37:51.360Z,3.10
2019-02-06T13:40:19.921Z,3.47
2019-02-06T13:42:47.841Z,4.70
2019-02-06T13:45:20.824Z,3.00
2019-02-06T13:47:48.663Z,2.63
2019-02-06T13:50:21.990Z,3.13
2019-02-06T13:52:46.744Z,4.43
2019-02-06T13:55:16.097Z,6.93
2019-02-06T13:57:43.538Z,6.77
2019-02-06T14:00:14.364Z,7.73
2019-02-06T14:02:42.427Z,7.77
2019-02-06T14:05:11.107Z,8.33
2019-02-06T14:07:38.624Z,9.47
2019-02-06T14:10:08.659Z,7.37
2019-02-06T14:12:36.135Z,9.70
2019-02-06T14:15:06.100Z,17.57
2019-02-06T14:17:33.612Z,15.30
2019-02-06T14:20:01.587Z,19.27
2019-02-06T14:22:29.322Z,20.87
2019-02-06T14:25:08.303Z,21.67
2019-02-06T14:27:46.170Z,18.23
2019-02-06T14:30:43.566Z,16.87
2019-02-06T14:33:28.927Z,28.40
2019-02-06T14:36:47.775Z,27.10
2019-02-06T14:39:49.031Z,24.53
2019-02-06T14:43:13.660Z,23.00
2019-02-06T14:46:09.432Z,32.70
2019-02-06T14:49:12.557Z,39.23
2019-02-06T14:52:16.029Z,39.67
2019-02-06T14:55:20.375Z,44.13
2019-02-06T14:58:32.510Z,41.20
2019-02-06T15:01:33.630Z,49.33
2019-02-06T15:04:30.482Z,45.83
2019-02-06T15:07:41.933Z,46.27
2019-02-06T15:10:37.071Z,43.80
2019-02-06T15:13:40.267Z,45.63
2019-02-06T15:16:46.979Z,44.57
2019-02-06T15:19:58.204Z,44.40
2019-02-06T15:23:32.522Z,42.53
2019-02-06T15:26:21.229Z,46.53
2019-02-06T15:29:23.210Z,43.57
2019-02-06T15:32:17.548Z,42.10
2019-02-06T15:35:22.957Z,44.53
2019-02-06T15:38:32.636Z,39.10
2019-02-06T15:41:31.145Z,35.90
2019-02-06T15:44:25.241Z,22.17
2019-02-06T15:47:16.094Z,31.90
2019-02-06T15:50:12.877Z,38.17
2019-02-06T15:53:23.596Z,36.93
2019-02-06T15:56:26.328Z,36.77
2019-02-06T15:59:31.760Z,31.33
2019-02-06T16:02:47.264Z,25.87
2019-02-06T16:05:43.604Z,28.13
2019-02-06T16:08:33.206Z,29.93
2019-02-06T16:11:25.725Z,29.77
2019-02-06T16:14:22.432Z,19.80
2019-02-06T16:17:44.578Z,26.00
2019-02-06T16:20:49.176Z,21.87
2019-02-06T16:23:37.827Z,24.90
2019-02-06T16:26:35.994Z,24.37
2019-02-06T16:29:46.124Z,18.00
2019-02-06T16:32:37.815Z,24.33
2019-02-06T16:35:46.051Z,21.60
2019-02-06T16:38:38.553Z,20.80
2019-02-06T16:41:32.283Z,21.93
2019-02-06T16:44:25.872Z,22.03
2019-02-06T16:47:08.498Z,25.60
2019-02-06T16:50:15.875Z,22.97
2019-02-06T16:53:23.202Z,21.40
2019-02-06T16:56:39.158Z,22.40
2019-02-06T16:59:47.169Z,23.40
2019-02-06T17:02:53.511Z,22.60
2019-02-06T17:05:43.680Z,21.87
2019-02-06T17:08:48.571Z,24.20
2019-02-06T17:12:04.049Z,24.67
2019-02-06T17:15:01.589Z,21.63
2019-02-06T17:17:51.969Z,24.50
2019-02-06T17:20:57.399Z,25.67
2019-02-06T17:24:05.489Z,22.87
2019-02-06T17:26:43.014Z,25.70
2019-02-06T17:29:46.793Z,23.93
2019-02-06T17:32:59.100Z,31.30
2019-02-06T17:35:53.440Z,28.73
2019-02-06T17:38:52.194Z,24.53
2019-02-06T17:41:46.921Z,26.57
2019-02-06T17:44:46.705Z,27.83
2019-02-06T17:47:49.657Z,25.37
2019-02-06T17:50:52.800Z,27.87
2019-02-06T17:54:01.541Z,30.83
2019-02-06T17:56:29.213Z,29.10
2019-02-06T17:58:56.960Z,33.87
2019-02-06T18:01:36.779Z,32.27
2019-02-06T18:04:10.240Z,29.63
2019-02-06T18:06:37.815Z,34.90
2019-02-06T18:09:12.272Z,28.73
2019-02-06T18:11:40.738Z,35.33
2019-02-06T18:14:09.749Z,30.57
2019-02-06T18:16:39.291Z,29.53
2019-02-06T18:19:06.603Z,31.70
2019-02-06T18:21:34.332Z,26.87
2019-02-06T18:24:01.874Z,26.83
2019-02-06T18:26:29.548Z,24.20
2019-02-06T18:28:56.941Z,28.43
2019-02-06T18:31:24.567Z,29.37
2019-02-06T18:33:51.963Z,28.33
2019-02-06T18:36:19.600Z,27.97
2019-02-06T18:38:50.534Z,28.60
2019-02-06T18:41:18.316Z,27.07
2019-02-06T18:43:45.741Z,31.07
2019-02-06T18:46:13.656Z,28.10
2019-02-06T18:48:41.181Z,28.37
2019-02-06T18:51:08.978Z,27.67
2019-02-06T18:53:42.599Z,27.40
2019-02-06T18:56:10.610Z,26.60
2019-02-06T18:58:38.575Z,24.13
2019-02-06T19:01:06.974Z,22.23
2019-02-06T19:03:38.211Z,23.00
2019-02-06T19:06:06.509Z,21.63
2019-02-06T19:08:34.940Z,22.27
2019-02-06T19:11:03.178Z,23.27
2019-02-06T19:13:31.201Z,21.33
2019-02-06T19:15:58.905Z,20.97
2019-02-06T19:18:27.123Z,22.57
2019-02-06T19:20:54.974Z,22.27
2019-02-06T19:23:22.961Z,20.03
2019-02-06T19:26:13.275Z,16.57
2019-02-06T19:28:29.118Z,20.53
2019-02-06T19:30:56.663Z,20.03
2019-02-06T19:33:24.273Z,20.03
2019-02-06T19:35:52.037Z,17.80
2019-02-06T19:38:19.596Z,18.20
2019-02-06T19:40:47.383Z,15.37
2019-02-06T19:43:16.093Z,18.77
2019-02-06T19:45:43.996Z,18.77
2019-02-06T19:48:18.763Z,19.13
2019-02-06T19:50:45.127Z,16.60
2019-02-06T19:53:13.615Z,17.30
2019-02-06T19:55:41.397Z,17.17
2019-02-06T19:58:10.014Z,17.60
2019-02-06T20:00:41.294Z,14.80
2019-02-06T20:03:09.286Z,17.20
2019-02-06T20:05:36.938Z,21.23
2019-02-06T20:10:58.832Z,21.43
2019-02-06T20:13:26.759Z,20.30
2019-02-06T20:15:56.576Z,19.20
2019-02-06T20:18:24.423Z,21.63
2019-02-06T20:20:52.171Z,24.13
2019-02-06T20:24:03.786Z,21.10
2019-02-06T20:26:31.768Z,19.93
2019-02-06T20:28:59.943Z,22.87
2019-02-06T20:31:27.808Z,25.47
2019-02-06T20:36:36.505Z,23.50
2019-02-06T20:39:07.905Z,24.67
2019-02-06T20:41:35.867Z,22.33
2019-02-06T20:44:03.916Z,22.27
2019-02-06T20:46:31.742Z,20.57
2019-02-06T20:48:59.521Z,21.40
2019-02-06T20:51:27.404Z,17.77
2019-02-06T20:53:55.146Z,19.17
2019-02-06T20:56:23.310Z,22.23
2019-02-06T20:58:51.671Z,22.00
2019-02-06T21:01:19.588Z,23.60
2019-02-06T21:03:47.943Z,25.33
2019-02-06T21:06:16.093Z,23.00
2019-02-06T21:08:43.790Z,29.10
2019-02-06T21:11:11.645Z,22.53
2019-02-06T21:13:39.568Z,28.60
2019-02-06T21:16:08.073Z,31.17
2019-02-06T21:18:41.517Z,22.87
2019-02-06T21:21:09.717Z,23.90
2019-02-06T21:23:37.696Z,23.37
2019-02-06T21:26:08.100Z,20.30
2019-02-06T21:28:38.017Z,22.47
2019-02-06T21:31:06.174Z,24.30
2019-02-06T21:33:34.842Z,25.37
2019-02-06T21:36:02.593Z,24.30
2019-02-06T21:38:30.814Z,28.03
2019-02-06T21:40:58.722Z,27.43
2019-02-06T21:43:26.884Z,27.50
2019-02-06T21:46:05.258Z,25.90
2019-02-06T21:48:27.433Z,27.80
2019-02-06T21:50:55.201Z,22.93
2019-02-06T21:53:23.054Z,25.73
2019-02-06T21:55:50.943Z,28.00
2019-02-06T21:58:19.052Z,30.63
2019-02-06T22:00:55.731Z,29.57
2019-02-06T22:03:23.660Z,25.20
2019-02-06T22:05:51.640Z,24.77
2019-02-06T22:08:19.781Z,25.77
2019-02-06T22:10:49.708Z,28.13
2019-02-06T22:13:17.813Z,33.30
2019-02-06T22:15:45.681Z,27.23
2019-02-06T22:18:13.552Z,23.83
2019-02-06T22:20:44.596Z,27.40
2019-02-06T22:23:12.649Z,24.53
2019-02-06T22:25:42.181Z,26.93
2019-02-06T22:28:10.539Z,23.40
2019-02-06T22:30:38.677Z,25.07
2019-02-06T22:33:07.467Z,21.90
2019-02-06T22:35:36.530Z,25.73
2019-02-06T22:38:04.914Z,23.50
2019-02-06T22:40:33.296Z,23.37
2019-02-06T22:43:01.576Z,22.47
2019-02-06T22:45:29.959Z,23.20
2019-02-06T22:47:58.425Z,22.00
2019-02-06T22:50:27.851Z,23.67
2019-02-06T22:52:56.044Z,21.47
2019-02-06T22:55:24.458Z,18.10
2019-02-06T22:57:52.905Z,21.73
2019-02-06T23:00:45.230Z,25.80
2019-02-06T23:03:13.489Z,24.07
2019-02-06T23:05:40.970Z,26.97
2019-02-06T23:08:08.379Z,23.67
2019-02-06T23:10:36.870Z,25.90
2019-02-06T23:13:05.657Z,31.90
2019-02-06T23:15:33.281Z,32.80
2019-02-06T23:18:00.813Z,27.63
2019-02-06T23:20:28.497Z,26.93
2019-02-06T23:22:55.830Z,31.00
2019-02-06T23:25:23.202Z,28.67
2019-02-06T23:27:50.673Z,29.13
2019-02-06T23:30:18.012Z,34.33
2019-02-06T23:32:45.936Z,32.60
2019-02-06T23:35:13.255Z,39.37
2019-02-06T23:37:40.660Z,36.03
2019-02-06T23:40:08.504Z,34.90
2019-02-06T23:42:35.857Z,61.23
2019-02-06T23:45:04.417Z,83.67
2019-02-06T23:47:31.747Z,35.10
2019-02-06T23:49:59.539Z,37.50
2019-02-06T23:52:26.893Z,40.23
2019-02-06T23:54:54.377Z,43.40
2019-02-06T23:57:21.726Z,75.33
2019-02-06T23:59:49.208Z,40.97
